Time;durP1;ratioP1;P1;durP2;ratioP2;P2;SDS_P1;SDS_P2;PMS_P1;PMS_P2;Temp;Humidity;BMP_temperature;BMP_pressure;BME280_temperature;BME280_humidity;BME280_pressure;Samples;Min_cycle;Max_cycle;Signal;HPM_P1;HPM_P2
2022/08/25 00:02:39;;;;;;;22.40;7.50;;;;;;;19.52;86.63;98928.89;432120;1273;108778;-38
2022/08/25 00:12:49;;;;;;;16.50;7.10;;;;;;;19.52;86.90;98927.34;432200;1273;97505;-39
2022/08/25 00:22:57;;;;;;;15.10;7.40;;;;;;;19.60;87.10;98922.99;431946;1273;108889;-39
2022/08/25 00:33:04;;;;;;;13.90;7.00;;;;;;;19.57;86.91;98921.67;432309;1273;97994;-39
2022/08/25 00:43:12;;;;;;;19.20;8.00;;;;;;;19.44;87.05;98918.28;432074;1273;110200;-39
2022/08/25 00:53:19;;;;;;;17.20;7.90;;;;;;;19.34;86.95;98924.13;431576;1273;108734;-39
2022/08/25 01:03:32;;;;;;;19.50;8.40;;;;;;;19.25;86.96;98926.29;431527;1272;97784;-40
2022/08/25 01:33:57;;;;;;;;;;;;;;;19.37;87.71;98931.30;431520;1274;111158;-41
2022/08/25 01:44:05;;;;;;;16.80;8.40;;;;;;;19.30;87.66;98926.73;430967;1276;108345;-39
2022/08/25 01:54:22;;;;;;;14.60;7.70;;;;;;;19.38;88.17;98913.38;431509;1274;97004;-39
2022/08/25 02:14:37;;;;;;;21.50;7.70;;;;;;;19.19;87.88;98911.86;431088;1276;96623;-40
2022/08/25 02:24:48;;;;;;;17.40;8.70;;;;;;;19.17;87.93;98915.30;432373;1273;111059;-39
2022/08/25 02:34:56;;;;;;;13.10;8.60;;;;;;;19.02;87.93;98909.83;432105;1273;109021;-40
2022/08/25 02:45:05;;;;;;;13.60;8.80;;;;;;;18.98;88.31;98910.88;432064;1273;97899;-39
2022/08/25 02:55:15;;;;;;;18.30;9.00;;;;;;;18.97;88.38;98902.69;432100;1273;109025;-39
2022/08/25 03:05:21;;;;;;;12.60;8.10;;;;;;;18.91;88.30;98887.98;432531;1273;98157;-41
2022/08/25 03:15:29;;;;;;;11.80;7.90;;;;;;;18.86;88.55;98890.63;432036;1271;111333;-42
2022/08/25 03:36:08;;;;;;;18.60;8.80;;;;;;;18.81;88.92;98886.64;431860;1273;97647;-41
2022/08/25 03:46:22;;;;;;;14.90;8.20;;;;;;;18.78;88.91;98899.69;431780;1273;107800;-38
2022/08/25 03:56:30;;;;;;;12.40;7.00;;;;;;;18.77;89.15;98900.39;432205;1273;97384;-39
2022/08/25 04:06:37;;;;;;;11.80;6.80;;;;;;;18.78;89.02;98897.92;432204;1273;111281;-39
2022/08/25 04:16:45;;;;;;;20.50;7.30;;;;;;;18.91;89.32;98898.52;431369;1274;109091;-39
2022/08/25 04:26:53;;;;;;;21.00;7.50;;;;;;;19.15;89.19;98891.14;432171;1273;98604;-39
2022/08/25 04:36:59;;;;;;;15.70;8.00;;;;;;;19.34;89.04;98893.46;432016;1273;109321;-40
2022/08/25 04:47:05;;;;;;;20.70;9.70;;;;;;;19.60;89.06;98894.39;432124;1273;97921;-39
2022/08/25 04:57:12;;;;;;;21.00;9.10;;;;;;;19.98;89.08;98889.15;431729;1274;110029;-40
2022/08/25 05:07:20;;;;;;;21.20;9.70;;;;;;;20.23;88.75;98886.09;432107;1273;108980;-39
2022/08/25 05:17:27;;;;;;;17.90;8.00;;;;;;;20.69;89.05;98886.33;431457;1274;97907;-41
2022/08/25 05:27:35;;;;;;;15.00;6.80;;;;;;;21.52;88.69;98884.41;432201;1273;110115;-38
2022/08/25 05:37:42;;;;;;;16.50;7.40;;;;;;;22.15;87.98;98880.71;432073;1273;98208;-39
2022/08/25 05:47:49;;;;;;;21.70;7.60;;;;;;;22.56;87.14;98878.91;432022;1273;109989;-39
2022/08/25 05:57:58;;;;;;;21.10;6.20;;;;;;;22.31;86.27;98868.06;431977;1273;108780;-39
2022/08/25 06:08:03;;;;;;;20.20;7.20;;;;;;;21.92;85.92;98865.35;431140;1273;1313931;-39
2022/08/25 06:18:10;;;;;;;23.80;8.20;;;;;;;21.84;86.52;98869.81;432214;1273;108802;-39
2022/08/25 06:28:17;;;;;;;17.60;7.60;;;;;;;22.06;86.19;98870.73;431869;1274;97454;-39
2022/08/25 06:38:25;;;;;;;20.70;6.60;;;;;;;22.65;86.32;98879.33;432050;1274;111043;-41
2022/08/25 06:48:33;;;;;;;16.70;7.10;;;;;;;23.22;85.26;98875.95;432226;1273;109020;-39
2022/08/25 06:58:39;;;;;;;16.60;7.30;;;;;;;23.32;84.42;98879.05;432070;1273;97876;-39
2022/08/25 07:08:47;;;;;;;20.20;7.10;;;;;;;23.42;83.97;98884.88;432063;1273;108847;-39
2022/08/25 07:29:01;;;;;;;21.50;6.00;;;;;;;24.09;83.57;98886.23;432408;1273;111211;-41
2022/08/25 07:39:08;;;;;;;16.30;7.30;;;;;;;24.61;82.81;98882.17;432246;1273;107854;-40
2022/08/25 07:49:16;;;;;;;18.50;7.60;;;;;;;24.59;81.85;98888.31;431177;1273;97989;-40
2022/08/25 07:59:27;;;;;;;22.90;6.70;;;;;;;23.96;80.78;98895.64;432652;1273;110904;-39
2022/08/25 08:09:36;;;;;;;21.40;7.40;;;;;;;23.90;81.80;98894.16;432209;1271;108841;-39
2022/08/25 08:19:42;;;;;;;18.40;7.60;;;;;;;23.72;81.09;98893.77;432079;1274;96687;-39
2022/08/25 08:40:00;;;;;;;21.20;8.10;;;;;;;24.40;81.69;98885.90;432183;1273;98221;-40
2022/08/25 08:50:18;;;;;;;29.30;9.90;;;;;;;24.80;81.58;98880.41;432181;1273;111224;-40
2022/08/25 09:00:47;;;;;;;19.10;8.70;;;;;;;25.18;79.71;98873.34;432256;1273;108910;-41
2022/08/25 09:10:58;;;;;;;28.20;8.90;;;;;;;25.10;79.76;98870.19;431913;1273;97900;-40
2022/08/25 09:21:04;;;;;;;26.00;9.40;;;;;;;25.25;78.96;98862.37;431956;1273;111222;-41
2022/08/25 09:31:12;;;;;;;27.50;9.10;;;;;;;25.74;79.27;98854.61;431957;1273;109315;-41
2022/08/25 09:41:35;;;;;;;21.90;7.70;;;;;;;26.12;78.30;98853.48;432300;1273;97501;-39
2022/08/25 09:51:43;;;;;;;38.00;9.30;;;;;;;26.52;78.33;98854.24;432253;1273;109428;-39
2022/08/25 10:01:50;;;;;;;31.50;9.10;;;;;;;26.53;76.22;98840.65;432171;1273;108800;-40
2022/08/25 10:12:00;;;;;;;28.30;7.50;;;;;;;26.48;75.38;98834.94;431905;1273;97515;-40
2022/08/25 10:22:09;;;;;;;42.30;9.20;;;;;;;26.86;75.73;98829.93;431963;1273;111112;-41
2022/08/25 10:32:14;;;;;;;35.30;8.50;;;;;;;27.22;74.85;98820.63;432069;1272;109665;-39
2022/08/25 10:42:33;;;;;;;26.20;8.10;;;;;;;27.42;74.08;98809.83;431863;1272;97897;-41
2022/08/25 10:52:50;;;;;;;29.10;9.00;;;;;;;27.39;73.62;98802.92;432141;1273;111142;-39
2022/08/25 11:03:05;;;;;;;35.10;8.90;;;;;;;27.69;73.15;98795.76;431223;1273;108963;-40
2022/08/25 11:23:24;;;;;;;24.00;7.70;;;;;;;27.62;70.45;98779.20;431976;1273;111792;-39
2022/08/25 11:33:32;;;;;;;40.10;9.80;;;;;;;27.72;70.11;98772.27;431785;1273;108756;-40
2022/08/25 11:43:52;;;;;;;30.60;9.40;;;;;;;27.88;68.95;98773.01;432132;1273;97053;-40
2022/08/25 11:54:07;;;;;;;32.60;8.60;;;;;;;28.07;68.66;98751.86;432172;1272;111073;-40
2022/08/25 12:14:36;;;;;;;35.50;9.30;;;;;;;28.16;65.86;98733.26;431989;1273;97903;-40
2022/08/25 12:24:55;;;;;;;33.40;7.90;;;;;;;28.37;66.74;98733.36;430899;1274;97391;-41
2022/08/25 12:45:40;;;;;;;31.40;7.60;;;;;;;28.52;63.25;98734.81;432010;1273;108933;-40
2022/08/25 12:55:46;;;;;;;30.00;7.70;;;;;;;28.49;62.48;98733.79;431390;1273;98595;-43
2022/08/25 13:06:15;;;;;;;22.10;7.90;;;;;;;28.50;61.54;98729.45;430988;1274;110040;-40
2022/08/25 13:26:41;;;;;;;25.70;7.70;;;;;;;28.46;59.12;98719.32;432278;1273;109219;-41
2022/08/25 13:47:40;;;;;;;21.60;7.50;;;;;;;28.47;59.39;98705.21;431990;1273;111463;-39
2022/08/25 13:57:53;;;;;;;21.30;7.70;;;;;;;28.50;58.71;98704.80;431979;1273;109236;-40
2022/08/25 14:18:31;;;;;;;;;;;;;;;28.58;57.98;98682.12;432231;1273;98579;-40
2022/08/25 14:28:39;;;;;;;22.80;8.90;;;;;;;28.67;58.71;98675.13;432031;1273;111476;-39
2022/08/25 14:38:47;;;;;;;19.10;8.30;;;;;;;28.68;59.21;98671.11;431789;1273;109149;-40
2022/08/25 14:49:03;;;;;;;24.50;7.90;;;;;;;28.59;59.21;98660.05;432006;1273;109305;-40
2022/08/25 14:59:11;;;;;;;24.00;8.20;;;;;;;28.54;59.21;98654.23;432167;1273;97910;-39
2022/08/25 15:09:19;;;;;;;23.60;8.10;;;;;;;28.50;59.45;98646.08;431233;1274;111161;-39
2022/08/25 15:19:29;;;;;;;24.30;6.40;;;;;;;28.48;59.38;98633.27;431884;1273;108958;-40
2022/08/25 15:29:37;;;;;;;19.00;7.50;;;;;;;28.43;58.01;98637.40;431967;1273;108997;-40
2022/08/25 15:50:05;;;;;;;12.40;5.40;;;;;;;28.30;57.20;98634.78;432131;1273;111118;-39
2022/08/25 16:00:15;;;;;;;18.50;6.00;;;;;;;28.20;57.13;98634.17;431927;1273;106211;-41
2022/08/25 16:10:23;;;;;;;18.70;5.90;;;;;;;28.11;57.02;98622.21;432155;1273;97506;-40
2022/08/25 16:20:33;;;;;;;24.60;6.30;;;;;;;28.01;57.24;98619.29;431780;1273;97974;-40
2022/08/25 16:30:44;;;;;;;24.80;6.60;;;;;;;27.83;57.67;98616.66;431938;1273;111049;-40
2022/08/25 16:40:59;;;;;;;22.00;5.90;;;;;;;27.62;58.02;98617.88;431592;1273;109103;-41
2022/08/25 16:51:08;;;;;;;20.80;6.90;;;;;;;27.38;58.71;98620.85;432007;1273;98192;-40
2022/08/25 17:01:16;;;;;;;23.80;7.00;;;;;;;26.97;60.01;98619.31;431185;1273;97874;-40
2022/08/25 17:11:26;;;;;;;18.20;8.50;;;;;;;26.58;60.60;98619.14;431732;1273;111157;-40
2022/08/25 17:21:37;;;;;;;16.90;6.30;;;;;;;26.20;61.56;98616.70;431402;1273;108802;-40
2022/08/25 17:31:51;;;;;;;20.00;6.10;;;;;;;25.75;62.31;98627.48;431548;1273;98016;-39
2022/08/25 17:41:58;;;;;;;26.90;7.20;;;;;;;25.22;63.28;98628.27;432203;1273;111177;-39
2022/08/25 17:52:08;;;;;;;29.90;10.00;;;;;;;24.66;63.83;98623.45;430947;1275;108907;-40
2022/08/25 18:02:15;;;;;;;24.50;8.90;;;;;;;24.07;64.93;98618.48;431781;1273;97323;-44
2022/08/25 18:12:23;;;;;;;27.80;9.20;;;;;;;23.67;66.22;98621.08;430702;1273;1858792;-40
2022/08/25 18:22:35;;;;;;;24.60;10.20;;;;;;;23.32;67.28;98625.94;431457;1273;108780;-39
2022/08/25 18:32:42;;;;;;;30.70;12.80;;;;;;;22.97;67.70;98637.40;431934;1273;97938;-39
2022/08/25 18:42:50;;;;;;;22.20;8.90;;;;;;;22.71;68.66;98646.77;431721;1274;108704;-39
2022/08/25 18:52:59;;;;;;;19.60;7.50;;;;;;;22.47;68.90;98648.46;431774;1273;97996;-39
2022/08/25 19:03:05;;;;;;;26.20;8.80;;;;;;;22.21;69.35;98654.73;431671;1273;110891;-39
2022/08/25 19:13:15;;;;;;;19.00;7.10;;;;;;;21.85;69.78;98657.73;432126;1273;108979;-40
2022/08/25 19:23:28;;;;;;;18.40;7.50;;;;;;;21.60;70.15;98651.21;431954;1273;98381;-40
2022/08/25 19:33:35;;;;;;;22.50;8.40;;;;;;;21.48;70.80;98648.66;431707;1273;111113;-39
2022/08/25 19:43:51;;;;;;;19.30;9.70;;;;;;;21.37;71.32;98648.88;431920;1273;108475;-39
2022/08/25 19:54:04;;;;;;;24.00;10.00;;;;;;;21.13;71.66;98648.89;432415;1273;97908;-40
2022/08/25 20:04:12;;;;;;;31.70;14.10;;;;;;;20.94;72.46;98643.44;430904;1276;108932;-40
2022/08/25 20:14:20;;;;;;;35.90;14.70;;;;;;;21.01;73.20;98643.51;432226;1273;97528;-40
2022/08/25 20:34:52;;;;;;;40.60;18.10;;;;;;;20.59;73.91;98640.84;432079;1273;108789;-40
2022/08/25 20:45:02;;;;;;;36.60;17.30;;;;;;;20.55;74.28;98644.44;432012;1273;97894;-43
2022/08/25 20:55:07;;;;;;;47.70;19.60;;;;;;;20.37;74.52;98642.61;431948;1273;108801;-40
2022/08/25 21:05:15;;;;;;;35.70;17.90;;;;;;;20.24;74.97;98639.91;432040;1273;97508;-38
2022/08/25 21:15:23;;;;;;;27.20;14.70;;;;;;;20.32;75.80;98634.73;432060;1273;111353;-40
2022/08/25 21:25:30;;;;;;;34.80;15.00;;;;;;;20.32;75.81;98637.11;432026;1273;109122;-41
2022/08/25 21:35:39;;;;;;;31.00;12.60;;;;;;;20.19;76.23;98629.70;430908;1273;97814;-42
2022/08/25 21:45:46;;;;;;;28.50;14.70;;;;;;;20.08;76.25;98623.89;431658;1273;108886;-41
2022/08/25 21:55:53;;;;;;;22.30;12.60;;;;;;;20.02;76.54;98618.34;431933;1274;97958;-41
2022/08/25 22:06:01;;;;;;;29.20;12.80;;;;;;;19.86;76.73;98619.59;430923;1274;110703;-40
2022/08/25 22:16:10;;;;;;;22.60;12.50;;;;;;;19.64;76.66;98613.14;432290;1275;108892;-41
2022/08/25 22:26:19;;;;;;;23.80;10.10;;;;;;;19.49;77.21;98616.96;432120;1275;98353;-41
2022/08/25 22:36:31;;;;;;;17.00;9.80;;;;;;;19.49;77.26;98609.09;432145;1275;108945;-39
2022/08/25 22:46:38;;;;;;;19.20;10.70;;;;;;;19.31;77.28;98598.36;432126;1274;97907;-39
2022/08/25 22:56:45;;;;;;;;;;;;;;;19.14;77.55;98590.90;431925;1273;111063;-41
2022/08/25 23:06:52;;;;;;;21.80;12.40;;;;;;;18.99;77.88;98579.65;431997;1273;109476;-40
2022/08/25 23:17:00;;;;;;;32.10;11.90;;;;;;;18.96;78.14;98582.48;432117;1273;98079;-40
2022/08/25 23:27:16;;;;;;;30.30;11.40;;;;;;;18.79;78.06;98570.13;432333;1273;109121;-41
2022/08/25 23:37:24;;;;;;;26.00;12.40;;;;;;;18.66;78.38;98565.26;432342;1273;97811;-41
2022/08/25 23:47:32;;;;;;;26.30;13.30;;;;;;;18.61;78.54;98565.04;431789;1273;111430;-41
2022/08/25 23:57:39;;;;;;;21.50;12.00;;;;;;;18.54;78.62;98559.48;431875;1273;108943;-41
